createdAt,value
2024-01-31T00:00:18.064Z,30.027000
2024-01-31T00:05:24.371Z,30.027000
2024-01-31T00:10:24.106Z,30.027000
2024-01-31T00:15:24.173Z,30.026000
2024-01-31T00:20:24.104Z,30.026000
2024-01-31T00:25:24.279Z,30.026000
2024-01-31T00:30:24.110Z,30.026000
2024-01-31T00:35:18.066Z,30.026000
2024-01-31T00:40:24.265Z,30.026000
2024-01-31T00:45:15.957Z,30.029000
2024-01-31T00:50:16.020Z,30.029000
2024-01-31T00:55:18.059Z,30.029000
2024-01-31T01:00:17.987Z,30.030000
2024-01-31T01:05:18.087Z,30.030000
2024-01-31T01:10:24.317Z,30.030000
2024-01-31T01:15:18.078Z,30.033000
2024-01-31T01:20:18.083Z,30.033000
2024-01-31T01:25:24.422Z,30.033000
2024-01-31T01:30:24.278Z,30.030000
2024-01-31T01:35:24.284Z,30.030000
2024-01-31T01:40:16.127Z,30.030000
2024-01-31T01:45:18.101Z,30.026000
2024-01-31T01:50:17.999Z,30.026000
2024-01-31T01:55:18.180Z,30.026000
2024-01-31T02:00:24.456Z,30.025000
2024-01-31T02:05:18.463Z,30.025000
2024-01-31T02:10:24.570Z,30.025000
2024-01-31T02:15:24.430Z,30.024000
2024-01-31T02:20:24.394Z,30.024000
2024-01-31T02:25:24.422Z,30.024000
2024-01-31T02:30:16.227Z,30.025000
2024-01-31T02:35:16.271Z,30.025000
2024-01-31T02:40:24.513Z,30.025000
2024-01-31T02:45:24.521Z,30.019000
2024-01-31T02:50:18.252Z,30.019000
2024-01-31T02:55:24.439Z,30.019000
2024-01-31T03:00:24.557Z,30.019000
2024-01-31T03:05:24.569Z,30.019000
2024-01-31T03:10:18.353Z,30.019000
2024-01-31T03:15:18.343Z,30.018000
2024-01-31T03:20:18.341Z,30.018000
2024-01-31T03:25:16.400Z,30.018000
2024-01-31T03:30:16.347Z,30.019000
2024-01-31T03:35:24.567Z,30.019000
2024-01-31T03:40:18.547Z,30.019000
2024-01-31T03:45:18.384Z,30.017000
2024-01-31T03:50:18.366Z,30.017000
2024-01-31T03:55:24.566Z,30.017000
2024-01-31T04:00:18.386Z,30.021000
2024-01-31T04:05:24.901Z,30.021000
2024-01-31T04:10:24.719Z,30.021000
2024-01-31T04:15:24.543Z,30.021000
2024-01-31T04:20:16.575Z,30.021000
2024-01-31T04:25:16.558Z,30.021000
2024-01-31T04:30:18.508Z,30.019000
2024-01-31T04:35:24.727Z,30.019000
2024-01-31T04:40:24.734Z,30.019000
2024-01-31T04:45:18.488Z,30.020000
2024-01-31T04:50:24.767Z,30.020000
2024-01-31T04:55:24.778Z,30.020000
2024-01-31T05:00:17.859Z,30.019000
2024-01-31T05:05:17.908Z,30.019000
2024-01-31T05:10:24.021Z,30.019000
2024-01-31T05:15:17.867Z,30.020000
2024-01-31T05:20:24.162Z,30.020000
2024-01-31T05:25:24.187Z,30.020000
2024-01-31T05:30:15.933Z,30.017000
2024-01-31T05:35:24.149Z,30.017000
2024-01-31T05:40:24.137Z,30.017000
2024-01-31T05:45:24.149Z,30.013000
2024-01-31T05:50:24.170Z,30.013000
2024-01-31T05:55:18.007Z,30.013000
2024-01-31T06:00:24.149Z,30.013000
2024-01-31T06:05:24.189Z,30.013000
2024-01-31T06:10:18.021Z,30.013000
2024-01-31T06:15:24.157Z,30.013000
2024-01-31T06:20:16.107Z,30.013000
2024-01-31T06:25:15.992Z,30.013000
2024-01-31T06:30:24.239Z,30.009000
2024-01-31T06:35:24.241Z,30.009000
2024-01-31T06:40:18.044Z,30.009000
2024-01-31T06:45:18.109Z,30.015000
2024-01-31T06:50:24.383Z,30.015000
2024-01-31T06:55:24.247Z,30.015000
2024-01-31T07:00:18.198Z,30.012000
2024-01-31T07:05:18.170Z,30.012000
2024-01-31T07:10:24.331Z,30.012000
2024-01-31T07:15:18.810Z,30.008000
2024-01-31T07:20:16.253Z,30.008000
2024-01-31T07:25:24.403Z,30.008000
2024-01-31T07:30:18.096Z,30.000000
2024-01-31T07:35:18.221Z,30.000000
2024-01-31T07:40:18.203Z,30.000000
2024-01-31T07:45:24.325Z,29.989000
2024-01-31T07:50:24.534Z,29.989000
2024-01-31T07:55:18.117Z,29.989000
2024-01-31T08:00:18.110Z,29.995000
2024-01-31T08:05:24.382Z,29.995000
2024-01-31T08:10:16.392Z,29.995000
2024-01-31T08:15:16.186Z,29.984000
2024-01-31T08:20:24.645Z,29.984000
2024-01-31T08:25:18.321Z,29.984000
2024-01-31T08:30:18.334Z,29.980000
2024-01-31T08:35:18.330Z,29.980000
2024-01-31T08:40:24.657Z,29.980000
2024-01-31T08:45:18.342Z,29.977000
2024-01-31T08:50:24.586Z,29.977000
2024-01-31T08:55:18.390Z,29.977000
2024-01-31T09:00:18.776Z,29.976000
2024-01-31T09:05:16.439Z,29.976000
2024-01-31T09:10:24.535Z,29.976000
2024-01-31T09:15:24.717Z,29.972000
2024-01-31T09:20:18.429Z,29.972000
2024-01-31T09:25:24.728Z,29.972000
2024-01-31T09:30:18.368Z,29.969000
2024-01-31T09:35:18.568Z,29.969000
2024-01-31T09:40:24.808Z,29.969000
2024-01-31T09:45:18.462Z,29.967000
2024-01-31T09:50:18.549Z,29.967000
2024-01-31T09:55:16.582Z,29.967000
2024-01-31T10:00:16.510Z,29.963000
2024-01-31T10:05:18.467Z,29.963000
2024-01-31T10:10:24.931Z,29.963000
2024-01-31T10:15:24.702Z,29.961000
2024-01-31T10:20:24.788Z,29.961000
2024-01-31T10:25:24.819Z,29.961000
2024-01-31T10:30:24.739Z,29.959000
2024-01-31T10:35:34.206Z,29.959000
2024-01-31T10:40:18.763Z,29.959000
2024-01-31T10:45:24.934Z,29.959000
2024-01-31T10:50:16.606Z,29.959000
2024-01-31T10:55:16.816Z,29.959000
2024-01-31T11:00:25.224Z,29.953000
2024-01-31T11:05:25.146Z,29.953000
2024-01-31T11:10:24.882Z,29.953000
2024-01-31T11:15:24.872Z,29.951000
2024-01-31T11:20:18.878Z,29.951000
2024-01-31T11:25:24.978Z,29.951000
2024-01-31T11:30:24.921Z,29.954000
2024-01-31T11:35:18.655Z,29.954000
2024-01-31T11:40:24.859Z,29.954000
2024-01-31T11:45:16.871Z,29.956000
2024-01-31T11:50:16.831Z,29.956000
2024-01-31T11:55:18.938Z,29.956000
2024-01-31T12:00:18.952Z,29.946000
2024-01-31T12:05:18.930Z,29.946000
2024-01-31T12:10:18.772Z,29.946000
2024-01-31T12:15:18.858Z,29.941000
2024-01-31T12:20:25.087Z,29.941000
2024-01-31T12:25:25.161Z,29.941000
2024-01-31T12:30:25.058Z,29.942000
2024-01-31T12:35:19.031Z,29.942000
2024-01-31T12:40:16.997Z,29.942000
2024-01-31T12:45:18.990Z,29.939000
2024-01-31T12:50:18.970Z,29.939000
2024-01-31T12:55:25.327Z,29.939000
2024-01-31T13:00:19.089Z,29.937000
2024-01-31T13:05:19.013Z,29.937000
2024-01-31T13:10:25.188Z,29.937000
2024-01-31T13:15:19.237Z,29.939000
2024-01-31T13:20:25.368Z,29.939000
2024-01-31T13:25:25.359Z,29.939000
2024-01-31T13:30:17.162Z,29.933000
2024-01-31T13:35:17.116Z,29.933000
2024-01-31T13:40:25.274Z,29.933000
2024-01-31T13:45:25.234Z,29.931000
2024-01-31T13:50:19.033Z,29.931000
2024-01-31T13:55:19.092Z,29.931000
2024-01-31T14:00:19.150Z,29.928000
2024-01-31T14:05:25.374Z,29.928000
2024-01-31T14:10:19.087Z,29.928000
2024-01-31T14:15:25.430Z,29.925000
2024-01-31T14:20:25.417Z,29.925000
2024-01-31T14:25:17.326Z,29.925000
2024-01-31T14:30:17.207Z,29.928000
2024-01-31T14:35:19.420Z,29.928000
2024-01-31T14:40:25.348Z,29.928000
2024-01-31T14:45:25.412Z,29.927000
2024-01-31T14:50:19.316Z,29.927000
2024-01-31T14:55:19.317Z,29.927000
2024-01-31T15:00:25.518Z,29.921000
2024-01-31T15:05:19.300Z,29.921000
2024-01-31T15:10:19.203Z,29.921000
2024-01-31T15:15:19.339Z,29.915000
2024-01-31T15:20:17.392Z,29.915000
2024-01-31T15:25:25.580Z,29.915000
2024-01-31T15:30:19.412Z,29.907000
2024-01-31T15:35:19.335Z,29.907000
2024-01-31T15:40:19.436Z,29.907000
2024-01-31T15:45:25.572Z,29.904000
2024-01-31T15:50:25.665Z,29.904000
2024-01-31T15:55:19.444Z,29.904000
2024-01-31T16:00:25.584Z,29.895000
2024-01-31T16:05:19.341Z,29.895000
2024-01-31T16:10:17.510Z,29.895000
2024-01-31T16:15:17.405Z,29.893000
2024-01-31T16:20:19.530Z,29.893000
2024-01-31T16:25:19.365Z,29.893000
2024-01-31T16:30:25.659Z,29.887000
2024-01-31T16:35:25.676Z,29.887000
2024-01-31T16:40:25.716Z,29.887000
2024-01-31T16:45:19.625Z,29.880000
2024-01-31T16:50:25.689Z,29.880000
2024-01-31T16:55:25.762Z,29.880000
2024-01-31T17:00:19.626Z,29.875000
2024-01-31T17:05:17.656Z,29.875000
2024-01-31T17:10:23.719Z,29.875000
2024-01-31T17:15:23.931Z,29.871000
2024-01-31T17:20:23.798Z,29.871000
2024-01-31T17:25:17.673Z,29.871000
2024-01-31T17:30:23.787Z,29.866000
2024-01-31T17:35:24.828Z,29.866000
2024-01-31T17:40:24.749Z,29.866000
2024-01-31T17:45:24.905Z,29.862000
2024-01-31T17:50:18.606Z,29.862000
2024-01-31T17:55:18.552Z,29.862000
2024-01-31T18:00:24.923Z,29.855000
2024-01-31T18:05:18.779Z,29.855000
2024-01-31T18:10:24.908Z,29.855000
2024-01-31T18:15:19.990Z,29.854000
2024-01-31T18:20:16.779Z,29.854000
2024-01-31T18:25:18.756Z,29.854000
2024-01-31T18:30:18.882Z,29.846000
2024-01-31T18:35:25.071Z,29.846000
2024-01-31T18:40:24.878Z,29.846000
2024-01-31T18:45:18.746Z,29.842000
2024-01-31T18:50:18.784Z,29.842000
2024-01-31T18:55:25.089Z,29.842000
2024-01-31T19:00:24.940Z,29.837000
2024-01-31T19:05:18.881Z,29.837000
2024-01-31T19:10:16.944Z,29.837000
2024-01-31T19:15:16.888Z,29.831000
2024-01-31T19:20:18.933Z,29.831000
2024-01-31T19:25:18.908Z,29.831000
2024-01-31T19:30:25.365Z,29.828000
2024-01-31T19:35:25.101Z,29.828000
2024-01-31T19:40:18.919Z,29.828000
2024-01-31T19:45:25.153Z,29.828000
2024-01-31T19:50:25.089Z,29.828000
2024-01-31T19:55:19.025Z,29.828000
2024-01-31T20:00:18.938Z,29.827000
2024-01-31T20:05:17.061Z,29.827000
2024-01-31T20:10:17.016Z,29.827000
2024-01-31T20:15:25.297Z,29.826000
2024-01-31T20:20:18.989Z,29.826000
2024-01-31T20:25:25.273Z,29.826000
2024-01-31T20:30:25.242Z,29.824000
2024-01-31T20:35:19.000Z,29.824000
2024-01-31T20:40:25.197Z,29.824000
2024-01-31T20:45:19.152Z,29.822000
2024-01-31T20:50:19.096Z,29.822000
2024-01-31T20:55:25.302Z,29.822000
2024-01-31T21:00:17.258Z,29.820000
2024-01-31T21:05:25.442Z,29.820000
2024-01-31T21:10:25.245Z,29.820000
2024-01-31T21:15:19.114Z,29.816000
2024-01-31T21:20:19.383Z,29.816000
2024-01-31T21:25:19.255Z,29.816000
2024-01-31T21:30:19.295Z,29.810000
2024-01-31T21:35:19.136Z,29.810000
2024-01-31T21:40:19.225Z,29.810000
2024-01-31T21:45:19.313Z,29.811000
2024-01-31T21:50:17.218Z,29.811000
2024-01-31T21:55:17.316Z,29.811000
2024-01-31T22:00:25.428Z,29.810000
2024-01-31T22:05:25.546Z,29.810000
2024-01-31T22:10:19.200Z,29.810000
2024-01-31T22:15:25.419Z,29.806000
2024-01-31T22:20:19.198Z,29.806000
2024-01-31T22:25:19.254Z,29.806000
2024-01-31T22:30:19.524Z,29.807000
2024-01-31T22:35:19.249Z,29.807000
2024-01-31T22:40:25.581Z,29.807000
2024-01-31T22:45:17.389Z,29.804000
2024-01-31T22:50:17.270Z,29.804000
2024-01-31T22:55:25.584Z,29.804000
2024-01-31T23:00:25.513Z,29.806000
2024-01-31T23:05:25.631Z,29.806000
2024-01-31T23:10:19.228Z,29.806000
2024-01-31T23:15:19.469Z,29.809000
2024-01-31T23:20:25.630Z,29.809000
2024-01-31T23:25:19.395Z,29.809000
2024-01-31T23:30:19.397Z,29.804000
2024-01-31T23:35:25.641Z,29.804000
2024-01-31T23:40:17.411Z,29.804000
2024-01-31T23:45:25.676Z,29.807000
2024-01-31T23:50:19.449Z,29.807000
2024-01-31T23:55:19.446Z,29.807000
